createdAt,value
2018-05-11T00:00:26.243Z,4.67
2018-05-11T00:02:54.317Z,9.30
2018-05-11T00:05:22.398Z,5.00
2018-05-11T00:07:50.892Z,6.77
2018-05-11T00:10:18.967Z,5.50
2018-05-11T00:12:47.026Z,6.97
2018-05-11T00:15:15.132Z,6.70
2018-05-11T00:17:43.205Z,4.50
2018-05-11T00:20:12.066Z,5.93
2018-05-11T00:22:40.629Z,6.07
2018-05-11T00:25:09.735Z,7.53
2018-05-11T00:27:37.781Z,6.37
2018-05-11T00:30:06.178Z,5.73
2018-05-11T00:32:34.269Z,6.10
2018-05-11T00:35:02.355Z,6.33
2018-05-11T00:37:30.700Z,5.97
2018-05-11T00:39:58.755Z,6.80
2018-05-11T00:42:26.833Z,6.90
2018-05-11T00:44:55.120Z,7.10
2018-05-11T00:47:23.181Z,6.27
2018-05-11T00:49:51.265Z,6.60
2018-05-11T00:52:19.346Z,7.53
2018-05-11T00:54:47.441Z,6.90
2018-05-11T00:57:16.279Z,6.73
2018-05-11T00:59:44.369Z,5.53
2018-05-11T01:02:12.417Z,7.27
2018-05-11T01:04:40.489Z,6.80
2018-05-11T01:07:09.013Z,6.77
2018-05-11T01:09:37.476Z,7.73
2018-05-11T01:12:05.565Z,7.53
2018-05-11T01:14:33.652Z,5.43
2018-05-11T01:17:02.635Z,5.83
2018-05-11T01:19:31.401Z,8.10
2018-05-11T01:21:59.805Z,7.27
2018-05-11T01:24:27.861Z,5.07
2018-05-11T01:26:55.937Z,6.40
2018-05-11T01:29:24.423Z,5.73
2018-05-11T01:31:52.481Z,5.03
2018-05-11T01:34:21.713Z,5.10
2018-05-11T01:36:50.556Z,5.70
2018-05-11T01:39:18.665Z,6.73
2018-05-11T01:41:47.052Z,7.20
2018-05-11T01:44:15.901Z,9.87
2018-05-11T01:46:43.973Z,5.13
2018-05-11T01:49:12.029Z,9.07
2018-05-11T01:51:40.100Z,5.73
2018-05-11T01:54:08.185Z,8.37
2018-05-11T01:56:36.482Z,7.93
2018-05-11T01:59:04.569Z,12.03
2018-05-11T02:01:33.409Z,6.57
2018-05-11T02:04:01.537Z,5.53
2018-05-11T02:06:30.387Z,9.80
2018-05-11T02:08:58.461Z,6.50
2018-05-11T02:11:26.839Z,7.53
2018-05-11T02:13:54.897Z,8.57
2018-05-11T02:16:22.969Z,5.97
2018-05-11T02:18:51.165Z,5.20
2018-05-11T02:21:19.254Z,6.97
2018-05-11T02:23:48.807Z,6.97
2018-05-11T02:26:16.909Z,7.37
2018-05-11T02:28:44.953Z,5.57
2018-05-11T02:31:13.054Z,8.37
2018-05-11T02:33:41.125Z,5.80
2018-05-11T02:36:09.245Z,6.80
2018-05-11T02:38:37.344Z,6.60
2018-05-11T02:41:05.427Z,6.37
2018-05-11T02:43:33.508Z,8.47
2018-05-11T02:46:01.553Z,8.93
2018-05-11T02:48:30.032Z,6.10
2018-05-11T02:50:58.060Z,7.57
2018-05-11T02:53:26.893Z,8.87
2018-05-11T02:55:55.298Z,11.37
2018-05-11T02:58:23.373Z,6.67
2018-05-11T03:00:51.447Z,9.43
2018-05-11T03:03:19.904Z,8.90
2018-05-11T03:05:47.997Z,8.30
2018-05-11T03:08:16.074Z,8.60
2018-05-11T03:10:44.137Z,13.17
2018-05-11T03:13:12.387Z,9.57
2018-05-11T03:15:40.429Z,8.63
2018-05-11T03:18:09.257Z,7.03
2018-05-11T03:20:37.333Z,6.07
2018-05-11T03:23:05.388Z,6.13
2018-05-11T03:25:33.933Z,9.83
2018-05-11T03:28:02.741Z,6.67
2018-05-11T03:30:30.837Z,8.23
2018-05-11T03:32:59.130Z,5.80
2018-05-11T03:35:27.205Z,10.03
2018-05-11T03:37:56.301Z,8.20
2018-05-11T03:40:24.399Z,7.07
2018-05-11T03:42:52.491Z,6.87
2018-05-11T03:45:21.340Z,6.73
2018-05-11T03:47:49.661Z,6.60
2018-05-11T03:50:18.473Z,6.00
2018-05-11T03:52:46.541Z,7.43
2018-05-11T03:55:15.652Z,6.83
2018-05-11T03:57:43.717Z,6.33
2018-05-11T04:00:12.064Z,5.67
2018-05-11T04:02:40.917Z,8.13
2018-05-11T04:05:09.008Z,6.87
2018-05-11T04:07:37.077Z,7.43
2018-05-11T04:10:05.668Z,8.97
2018-05-11T04:12:34.521Z,10.27
2018-05-11T04:15:02.568Z,6.13
2018-05-11T04:17:31.685Z,8.10
2018-05-11T04:19:59.808Z,5.67
2018-05-11T04:22:28.656Z,7.00
2018-05-11T04:24:56.753Z,6.03
2018-05-11T04:27:24.880Z,6.53
2018-05-11T04:29:52.940Z,4.77
2018-05-11T04:32:21.037Z,6.70
2018-05-11T04:34:49.141Z,5.67
2018-05-11T04:37:17.278Z,6.70
2018-05-11T04:39:46.597Z,6.27
2018-05-11T04:42:14.669Z,6.83
2018-05-11T04:44:42.721Z,6.47
2018-05-11T04:47:11.091Z,7.63
2018-05-11T04:49:39.173Z,7.23
2018-05-11T04:52:07.257Z,8.10
2018-05-11T04:54:35.741Z,5.97
2018-05-11T04:57:03.793Z,6.80
2018-05-11T04:59:31.877Z,6.13
2018-05-11T05:01:59.940Z,8.73
2018-05-11T05:04:27.994Z,7.77
2018-05-11T05:06:56.093Z,6.37
2018-05-11T05:09:24.141Z,5.63
2018-05-11T05:11:52.237Z,7.63
2018-05-11T05:14:20.278Z,8.27
2018-05-11T05:16:48.767Z,7.97
2018-05-11T05:19:16.918Z,5.97
2018-05-11T05:21:44.914Z,9.73
2018-05-11T05:24:13.009Z,5.83
2018-05-11T05:26:41.154Z,4.93
2018-05-11T05:29:09.221Z,8.23
2018-05-11T05:31:37.633Z,8.17
2018-05-11T05:34:05.714Z,8.90
2018-05-11T05:36:33.777Z,11.43
2018-05-11T05:39:02.249Z,10.53
2018-05-11T05:41:30.444Z,9.60
2018-05-11T05:43:59.296Z,10.07
2018-05-11T05:46:27.380Z,8.60
2018-05-11T05:48:55.452Z,7.27
2018-05-11T05:51:23.521Z,9.73
2018-05-11T05:53:52.204Z,7.50
2018-05-11T05:56:20.280Z,8.70
2018-05-11T05:58:48.352Z,8.57
2018-05-11T06:01:16.743Z,9.30
2018-05-11T06:03:44.817Z,7.23
2018-05-11T06:06:12.889Z,9.37
2018-05-11T06:08:41.283Z,7.13
2018-05-11T06:11:09.329Z,8.53
2018-05-11T06:13:37.427Z,9.97
2018-05-11T06:16:06.680Z,11.47
2018-05-11T06:18:35.662Z,9.23
2018-05-11T06:21:03.735Z,9.63
2018-05-11T06:23:31.841Z,10.50
2018-05-11T06:25:59.917Z,10.90
2018-05-11T06:28:27.957Z,9.47
2018-05-11T06:30:56.061Z,12.90
2018-05-11T06:33:24.150Z,11.43
2018-05-11T06:35:52.988Z,13.83
2018-05-11T06:38:21.321Z,13.87
2018-05-11T06:40:50.208Z,14.00
2018-05-11T06:43:19.091Z,13.60
2018-05-11T06:45:47.185Z,16.03
2018-05-11T06:48:16.042Z,13.67
2018-05-11T06:50:44.097Z,14.67
2018-05-11T06:53:12.189Z,15.23
2018-05-11T06:55:40.388Z,16.10
2018-05-11T06:58:09.235Z,16.47
2018-05-11T07:00:37.521Z,17.67
2018-05-11T07:03:05.610Z,15.67
2018-05-11T07:05:33.693Z,21.27
2018-05-11T07:08:03.014Z,14.27
2018-05-11T07:10:31.133Z,15.67
2018-05-11T07:12:59.200Z,18.43
2018-05-11T07:15:27.377Z,17.83
2018-05-11T07:17:55.483Z,16.77
2018-05-11T07:20:24.335Z,16.25
2018-05-11T07:22:52.742Z,15.68
2018-05-11T07:25:20.804Z,16.83
2018-05-11T07:27:48.881Z,15.15
2018-05-11T07:30:16.947Z,16.83
2018-05-11T07:32:45.223Z,16.70
2018-05-11T07:35:13.345Z,18.80
2018-05-11T07:37:41.729Z,16.02
2018-05-11T07:40:09.829Z,14.93
2018-05-11T07:42:37.928Z,17.15
2018-05-11T07:45:06.237Z,15.10
2018-05-11T07:47:34.354Z,14.02
2018-05-11T07:50:02.409Z,14.85
2018-05-11T07:52:30.532Z,14.05
2018-05-11T07:55:00.213Z,13.05
2018-05-11T07:57:28.277Z,15.77
2018-05-11T07:59:56.373Z,14.93
2018-05-11T08:02:24.737Z,15.80
2018-05-11T08:04:53.582Z,17.62
2018-05-11T08:07:21.658Z,16.37
2018-05-11T08:09:49.733Z,17.40
2018-05-11T08:12:17.796Z,16.37
2018-05-11T08:14:45.918Z,14.20
2018-05-11T08:17:14.300Z,16.58
2018-05-11T08:19:43.348Z,17.27
2018-05-11T08:22:11.417Z,20.83
2018-05-11T08:24:39.534Z,14.43
2018-05-11T08:27:07.613Z,16.55
2018-05-11T08:29:35.712Z,14.75
2018-05-11T08:32:04.127Z,15.40
2018-05-11T08:34:32.214Z,15.32
2018-05-11T08:37:00.310Z,13.35
2018-05-11T08:39:30.431Z,14.25
2018-05-11T08:41:59.717Z,13.60
2018-05-11T08:44:27.833Z,12.98
2018-05-11T08:46:55.917Z,13.48
2018-05-11T08:49:24.321Z,15.82
2018-05-11T08:51:52.481Z,11.95
2018-05-11T08:54:20.457Z,14.02
2018-05-11T08:56:48.861Z,16.83
2018-05-11T08:59:16.961Z,13.48
2018-05-11T09:01:45.816Z,15.13
2018-05-11T09:04:13.921Z,12.27
2018-05-11T09:06:42.857Z,14.95
2018-05-11T09:09:10.945Z,14.15
2018-05-11T09:11:39.272Z,15.77
2018-05-11T09:14:07.389Z,13.15
2018-05-11T09:16:35.477Z,15.20
2018-05-11T09:19:03.629Z,15.18
2018-05-11T09:21:31.713Z,14.75
2018-05-11T09:23:59.800Z,14.80
2018-05-11T09:26:27.904Z,16.25
2018-05-11T09:28:56.761Z,15.85
2018-05-11T09:31:24.814Z,17.12
2018-05-11T09:33:52.933Z,11.93
2018-05-11T09:36:21.791Z,11.30
2018-05-11T09:38:49.877Z,11.02
2018-05-11T09:41:18.460Z,16.30
2018-05-11T09:43:46.709Z,11.52
2018-05-11T09:46:14.792Z,11.88
2018-05-11T09:48:43.084Z,13.02
2018-05-11T09:51:11.157Z,11.50
2018-05-11T09:53:40.812Z,11.77
2018-05-11T09:56:09.497Z,11.65
2018-05-11T09:58:37.573Z,11.90
2018-05-11T10:01:05.694Z,12.35
2018-05-11T10:03:34.765Z,11.15
2018-05-11T10:06:02.849Z,10.88
2018-05-11T10:08:30.913Z,13.77
2018-05-11T10:10:59.022Z,15.00
2018-05-11T10:13:27.953Z,10.50
2018-05-11T10:15:55.966Z,11.55
2018-05-11T10:18:25.137Z,11.95
2018-05-11T10:20:53.429Z,11.98
2018-05-11T10:23:21.509Z,13.95
2018-05-11T10:25:51.626Z,11.80
2018-05-11T10:28:19.677Z,14.57
2018-05-11T10:30:47.745Z,10.23
2018-05-11T10:33:16.128Z,8.35
2018-05-11T10:35:44.232Z,12.20
2018-05-11T10:38:13.088Z,9.25
2018-05-11T10:40:41.198Z,11.75
2018-05-11T10:43:10.077Z,12.35
2018-05-11T10:45:38.274Z,12.32
2018-05-11T10:48:07.570Z,11.43
2018-05-11T10:50:36.409Z,11.63
2018-05-11T10:53:04.518Z,11.73
2018-05-11T10:55:33.357Z,9.98
2018-05-11T10:58:01.425Z,14.82
2018-05-11T11:00:29.513Z,12.75
2018-05-11T11:02:57.618Z,11.30
2018-05-11T11:05:25.685Z,10.50
2018-05-11T11:07:53.768Z,9.93
2018-05-11T11:10:23.273Z,11.55
2018-05-11T11:12:52.113Z,9.65
2018-05-11T11:15:20.224Z,10.30
2018-05-11T11:17:48.289Z,11.32
2018-05-11T11:20:16.369Z,10.60
2018-05-11T11:22:44.409Z,9.45
2018-05-11T11:25:12.504Z,12.73
2018-05-11T11:27:41.483Z,10.25
2018-05-11T11:30:09.546Z,8.20
2018-05-11T11:32:37.649Z,9.55
2018-05-11T11:35:05.717Z,12.10
2018-05-11T11:37:34.591Z,14.00
2018-05-11T11:40:02.656Z,9.93
2018-05-11T11:42:30.956Z,10.00
2018-05-11T11:44:59.020Z,11.98
2018-05-11T11:47:27.151Z,10.98
2018-05-11T11:49:55.553Z,11.25
2018-05-11T11:52:24.742Z,10.32
2018-05-11T11:54:52.877Z,10.30
2018-05-11T11:57:21.711Z,9.55
2018-05-11T11:59:49.825Z,9.52
2018-05-11T12:02:18.701Z,10.63
2018-05-11T12:04:46.752Z,9.80
2018-05-11T12:07:14.847Z,11.35
2018-05-11T12:09:42.917Z,9.57
2018-05-11T12:12:10.996Z,10.52
2018-05-11T12:14:40.290Z,12.43
2018-05-11T12:17:08.542Z,10.73
2018-05-11T12:19:36.620Z,12.05
2018-05-11T12:22:04.736Z,9.48
2018-05-11T12:24:32.806Z,10.77
2018-05-11T12:27:00.857Z,11.82
2018-05-11T12:29:29.723Z,11.68
2018-05-11T12:31:57.799Z,11.65
2018-05-11T12:34:26.649Z,9.57
2018-05-11T12:36:55.856Z,10.82
2018-05-11T12:39:23.944Z,8.27
2018-05-11T12:41:52.000Z,16.05
2018-05-11T12:44:20.420Z,11.25
2018-05-11T12:46:48.487Z,9.20
2018-05-11T12:49:16.533Z,7.95
2018-05-11T12:51:44.637Z,13.75
2018-05-11T12:54:12.717Z,11.93
2018-05-11T12:56:41.572Z,10.48
2018-05-11T12:59:10.041Z,11.25
2018-05-11T13:01:38.220Z,10.73
2018-05-11T13:04:06.281Z,9.65
2018-05-11T13:06:34.353Z,10.23
2018-05-11T13:09:02.410Z,9.60
2018-05-11T13:11:30.483Z,8.52
2018-05-11T13:13:58.568Z,10.10
2018-05-11T13:16:26.669Z,11.25
2018-05-11T13:18:54.741Z,8.70
2018-05-11T13:21:22.985Z,9.65
2018-05-11T13:23:51.189Z,7.07
2018-05-11T13:26:19.319Z,9.52
2018-05-11T13:28:47.401Z,11.63
2018-05-11T13:31:15.489Z,10.55
2018-05-11T13:33:43.548Z,9.35
2018-05-11T13:36:12.468Z,10.00
2018-05-11T13:38:40.560Z,10.10
2018-05-11T13:41:09.400Z,10.70
2018-05-11T13:43:38.525Z,8.00
2018-05-11T13:46:06.576Z,8.02
2018-05-11T13:48:34.770Z,10.90
2018-05-11T13:51:02.810Z,9.43
2018-05-11T13:53:30.902Z,11.10
2018-05-11T13:55:58.989Z,11.50
2018-05-11T13:58:27.893Z,8.85
2018-05-11T14:00:55.961Z,8.00
2018-05-11T14:03:24.033Z,10.52
2018-05-11T14:05:52.921Z,10.77
2018-05-11T14:08:20.997Z,8.02
2018-05-11T14:10:49.036Z,10.40
2018-05-11T14:13:17.141Z,10.75
2018-05-11T14:15:46.008Z,8.93
2018-05-11T14:18:14.068Z,9.23
2018-05-11T14:20:42.173Z,11.95
2018-05-11T14:23:11.231Z,10.25
2018-05-11T14:25:39.343Z,11.63
2018-05-11T14:28:08.201Z,10.40
2018-05-11T14:30:36.272Z,10.82
2018-05-11T14:33:04.369Z,10.52
2018-05-11T14:35:32.704Z,10.82
2018-05-11T14:38:00.822Z,12.35
2018-05-11T14:40:28.889Z,7.85
2018-05-11T14:42:57.049Z,9.38
2018-05-11T14:45:25.105Z,9.65
2018-05-11T14:47:53.356Z,9.95
2018-05-11T14:50:21.461Z,8.30
2018-05-11T14:52:49.557Z,9.27
2018-05-11T14:55:17.599Z,9.00
2018-05-11T14:57:46.013Z,10.15
2018-05-11T15:00:14.253Z,8.70
2018-05-11T15:02:42.344Z,9.70
2018-05-11T15:05:10.713Z,8.32
2018-05-11T15:07:39.489Z,8.63
2018-05-11T15:10:07.690Z,8.52
2018-05-11T15:12:36.587Z,7.75
2018-05-11T15:15:04.661Z,11.50
2018-05-11T15:17:33.521Z,11.18
2018-05-11T15:20:01.592Z,10.60
2018-05-11T15:22:29.693Z,9.98
2018-05-11T15:24:58.557Z,10.32
2018-05-11T15:27:27.121Z,8.70
2018-05-11T15:29:56.361Z,8.45
2018-05-11T15:32:24.424Z,9.20
2018-05-11T15:34:52.505Z,11.70
2018-05-11T15:37:21.485Z,10.63
2018-05-11T15:39:50.661Z,12.32
2018-05-11T15:42:18.777Z,10.50
2018-05-11T15:44:47.657Z,11.88
2018-05-11T15:47:15.745Z,8.13
2018-05-11T15:49:44.568Z,12.27
2018-05-11T15:52:12.664Z,8.48
2018-05-11T15:54:41.053Z,10.05
2018-05-11T15:57:09.151Z,12.75
2018-05-11T15:59:38.001Z,9.77
2018-05-11T16:02:06.480Z,8.02
2018-05-11T16:04:34.546Z,9.95
2018-05-11T16:07:02.653Z,10.20
2018-05-11T16:09:30.737Z,6.75
2018-05-11T16:11:59.580Z,9.25
2018-05-11T16:14:28.712Z,9.95
2018-05-11T16:16:57.549Z,9.10
2018-05-11T16:19:25.648Z,11.57
2018-05-11T16:21:54.025Z,7.22
2018-05-11T16:24:22.093Z,11.75
2018-05-11T16:26:50.205Z,11.05
2018-05-11T16:29:19.045Z,9.00
2018-05-11T16:31:47.105Z,9.65
2018-05-11T16:34:15.184Z,10.85
2018-05-11T16:36:44.209Z,8.88
2018-05-11T16:39:12.265Z,10.32
2018-05-11T16:41:40.389Z,9.77
2018-05-11T16:44:09.409Z,11.90
2018-05-11T16:46:38.118Z,9.40
2018-05-11T16:49:06.200Z,9.70
2018-05-11T16:51:34.880Z,9.93
2018-05-11T16:54:02.953Z,13.43
2018-05-11T16:56:31.031Z,8.43
2018-05-11T16:58:59.449Z,11.40
2018-05-11T17:01:27.489Z,9.50
2018-05-11T17:03:55.542Z,10.70
2018-05-11T17:06:23.928Z,11.15
2018-05-11T17:08:52.027Z,9.68
2018-05-11T17:11:20.861Z,12.37
2018-05-11T17:13:48.989Z,8.18
2018-05-11T17:16:17.842Z,10.57
2018-05-11T17:18:45.949Z,10.55
2018-05-11T17:21:14.839Z,10.10
2018-05-11T17:23:44.717Z,8.35
2018-05-11T17:26:12.773Z,8.35
2018-05-11T17:28:41.700Z,8.23
2018-05-11T17:31:09.754Z,8.88
2018-05-11T17:33:37.850Z,8.15
2018-05-11T17:36:05.916Z,9.05
2018-05-11T17:38:33.997Z,8.10
2018-05-11T17:41:02.066Z,9.30
2018-05-11T17:43:30.964Z,7.70
2018-05-11T17:45:59.797Z,9.13
2018-05-11T17:48:28.745Z,10.95
2018-05-11T17:50:58.146Z,10.15
2018-05-11T17:53:27.854Z,8.35
2018-05-11T17:55:56.699Z,7.78
2018-05-11T17:58:25.692Z,5.60
2018-05-11T18:00:53.773Z,8.45
2018-05-11T18:03:21.868Z,7.82
2018-05-11T18:05:50.228Z,7.62
2018-05-11T18:08:18.336Z,7.40
2018-05-11T18:10:47.639Z,6.75
2018-05-11T18:13:16.462Z,7.93
2018-05-11T18:15:44.556Z,6.37
2018-05-11T18:18:12.669Z,7.03
2018-05-11T18:20:41.509Z,7.00
2018-05-11T18:23:09.595Z,7.87
2018-05-11T18:25:37.710Z,7.22
2018-05-11T18:28:05.792Z,7.32
2018-05-11T18:30:33.897Z,10.38
2018-05-11T18:33:02.366Z,6.60
2018-05-11T18:35:30.566Z,8.18
2018-05-11T18:37:58.665Z,6.67
2018-05-11T18:40:26.760Z,7.18
2018-05-11T18:42:56.421Z,8.05
2018-05-11T18:45:24.496Z,8.10
2018-05-11T18:47:52.590Z,7.07
2018-05-11T18:50:20.688Z,7.37
2018-05-11T18:52:49.531Z,7.10
2018-05-11T18:55:17.586Z,8.00
2018-05-11T18:57:45.665Z,8.83
2018-05-11T19:00:14.686Z,8.67
2018-05-11T19:02:42.757Z,9.70
2018-05-11T19:05:11.824Z,7.70
2018-05-11T19:07:39.926Z,10.03
2018-05-11T19:10:08.771Z,8.10
2018-05-11T19:12:36.873Z,8.07
2018-05-11T19:15:04.957Z,7.93
2018-05-11T19:17:33.030Z,7.93
2018-05-11T19:20:02.230Z,8.87
2018-05-11T19:22:31.117Z,9.03
2018-05-11T19:25:00.009Z,7.90
2018-05-11T19:27:28.915Z,8.33
2018-05-11T19:29:57.189Z,8.43
2018-05-11T19:32:26.056Z,10.20
2018-05-11T19:34:54.461Z,8.53
2018-05-11T19:37:24.241Z,7.53
2018-05-11T19:39:52.329Z,10.00
2018-05-11T19:42:20.428Z,7.77
2018-05-11T19:44:48.761Z,9.20
2018-05-11T19:47:16.809Z,9.80
2018-05-11T19:49:44.914Z,11.47
2018-05-11T19:52:14.104Z,9.27
2018-05-11T19:54:42.156Z,9.00
2018-05-11T19:57:10.381Z,10.23
2018-05-11T19:59:39.473Z,9.07
2018-05-11T20:02:08.509Z,9.63
2018-05-11T20:04:37.473Z,9.33
2018-05-11T20:07:06.353Z,9.53
2018-05-11T20:09:35.230Z,10.97
2018-05-11T20:12:04.441Z,9.07
2018-05-11T20:14:33.272Z,10.03
2018-05-11T20:17:01.357Z,10.20
2018-05-11T20:19:29.461Z,11.37
2018-05-11T20:21:58.321Z,9.37
2018-05-11T20:24:26.405Z,9.53
2018-05-11T20:26:54.769Z,10.17
2018-05-11T20:29:22.957Z,12.93
2018-05-11T20:31:51.033Z,11.50
2018-05-11T20:34:19.293Z,9.17
2018-05-11T20:36:47.364Z,9.70
2018-05-11T20:39:15.441Z,12.53
2018-05-11T20:41:43.537Z,9.33
2018-05-11T20:44:12.401Z,12.13
2018-05-11T20:46:40.496Z,12.30
2018-05-11T20:49:08.877Z,12.80
2018-05-11T20:51:37.749Z,12.67
2018-05-11T20:54:05.809Z,10.07
2018-05-11T20:56:33.897Z,10.23
2018-05-11T20:59:02.006Z,10.23
2018-05-11T21:01:31.585Z,12.77
2018-05-11T21:03:59.648Z,14.57
2018-05-11T21:06:27.724Z,12.53
2018-05-11T21:08:57.416Z,11.73
2018-05-11T21:11:25.486Z,13.97
2018-05-11T21:13:53.557Z,11.23
2018-05-11T21:16:21.889Z,10.77
2018-05-11T21:18:51.016Z,11.40
2018-05-11T21:21:19.113Z,11.63
2018-05-11T21:23:47.190Z,11.27
2018-05-11T21:26:15.577Z,11.37
2018-05-11T21:28:44.568Z,12.50
2018-05-11T21:31:12.649Z,11.10
2018-05-11T21:33:41.501Z,12.43
2018-05-11T21:36:09.595Z,14.67
2018-05-11T21:38:37.689Z,12.37
2018-05-11T21:41:07.490Z,11.60
2018-05-11T21:43:35.504Z,11.37
2018-05-11T21:46:03.577Z,11.67
2018-05-11T21:48:31.666Z,11.50
2018-05-11T21:50:59.737Z,12.40
2018-05-11T21:53:27.838Z,11.53
2018-05-11T21:55:56.221Z,12.20
2018-05-11T21:58:24.285Z,13.23
2018-05-11T22:00:52.384Z,11.87
2018-05-11T22:03:21.731Z,13.43
2018-05-11T22:05:49.988Z,12.07
2018-05-11T22:08:18.000Z,11.30
2018-05-11T22:10:46.361Z,13.57
2018-05-11T22:13:14.426Z,15.87
2018-05-11T22:15:42.505Z,15.43
2018-05-11T22:18:11.272Z,15.13
2018-05-11T22:20:39.365Z,13.73
2018-05-11T22:23:07.471Z,14.30
2018-05-11T22:25:36.669Z,13.30
2018-05-11T22:28:05.525Z,14.00
2018-05-11T22:30:33.633Z,13.37
2018-05-11T22:33:02.787Z,13.83
2018-05-11T22:35:30.854Z,13.70
2018-05-11T22:37:58.972Z,14.03
2018-05-11T22:40:28.273Z,12.93
2018-05-11T22:42:57.225Z,12.57
2018-05-11T22:45:25.308Z,13.97
2018-05-11T22:47:53.392Z,14.40
2018-05-11T22:50:21.484Z,13.53
2018-05-11T22:52:50.348Z,13.07
2018-05-11T22:55:18.465Z,11.97
2018-05-11T22:57:46.524Z,13.07
2018-05-11T23:00:15.389Z,15.57
2018-05-11T23:02:43.901Z,13.50
2018-05-11T23:05:11.969Z,13.60
2018-05-11T23:07:40.917Z,14.30
2018-05-11T23:10:09.731Z,13.07
2018-05-11T23:12:38.618Z,12.53
2018-05-11T23:15:06.668Z,14.27
2018-05-11T23:17:34.741Z,13.97
2018-05-11T23:20:02.813Z,14.50
2018-05-11T23:22:32.494Z,13.77
2018-05-11T23:25:00.921Z,12.93
2018-05-11T23:27:28.972Z,13.73
2018-05-11T23:29:57.065Z,14.73
2018-05-11T23:32:25.445Z,13.43
2018-05-11T23:34:54.309Z,13.77
2018-05-11T23:37:22.364Z,13.90
2018-05-11T23:39:50.784Z,15.03
2018-05-11T23:42:18.856Z,14.17
2018-05-11T23:44:46.929Z,14.53
2018-05-11T23:47:16.025Z,14.73
2018-05-11T23:49:44.161Z,14.90
2018-05-11T23:52:12.959Z,12.90
2018-05-11T23:54:42.141Z,14.63
2018-05-11T23:57:10.249Z,13.93
2018-05-11T23:59:38.528Z,15.07
